Portada
METAR-TAF:

METAR-TAF

Aeroports :

Aeroport Internacional de Sfax

Sfax, Tunísia

latitud: 34-43N, longitud: 010-41E, altitud: 21 m

Observació

L'informe es va fer fa 1 hora i 13 minuts, a les 00:00 UTC
Vent calma
Temperatura 8°C
Humitat 93%
Pressió 1014 hPa
Visibilitat 10 km o més
Núvols disperses a una alçada de 4000 ft

METAR: DTTX 200000Z 00000KT 9999 SCT040 08/07 Q1014

Hora: 02:13 (01:13 UTC)

Pronòstic

L'informe es va fer fa 2 hores i 13 minuts, a les 23:00 UTC
Pronòstic vàlid del 20 a les 00 UTC al 20 a les 24 UTC
Vent 4 kt del Sud/Sud-Oest
Visibilitat 10 km o més
Núvols disperses a una alçada de 4000 ft
Probabilitat 40% :
Temporalment
l' 20 a les 02 UTC al 20 a les 06 UTC
Visibilitat: 4000 m
boirina

TAF: DTTX 192300Z 2000/2024 20004KT 9999 SCT040 PROB40 TEMPO 2002/2006 4000 BR

Observacions i pronòstics meteorològics de més de 4000 aeroports (METAR i TAF).

Les estacions disponibles són els punts grocs i vermells al mapa.

Posi el ratolí al punt desitjat per veure el nom de l'estació.

Feu clic per veure les observacions i els pronòstics meteorològics.

Per canviar el mapa: feu clic els botons verds amb una creu de color negre per apropar; al botó verd amb un guió per allunyar la imatge; o en les fletxes verdes per a mapes adjacents.


METAR-TAF: